Página principal
METAR-TAF:

METAR-TAF

Aeroportos :

Boston, Massachusetts, Estados Unidos

Aeroporto Internacional Logan

latitude: 42-21-38N, longitude: 071-00-38W, altura: 6 m

Observação actual do tempo

O boletim foi feito há 11 minutos, às 20:54 UTC
Vento 10 kt de nor-noroeste com rajadas de 21 kt
Temperatura 14°C
Humidade 23%
Pressão 1022 hPa
Visibilidade: 16.1 km
Poucas nuvensa uma altura de 8000 ft

METAR: KBOS 212054Z 34010G21KT 10SM FEW080 14/M07 A3019 RMK AO2 SLP222 T01441072 55012

Hora: 17:05 (21:05 UTC)

Previsão

O boletim foi feito há 1 hora e 0 minutos, às 20:05 UTC
Previsão válida de 21 às 20 UTC a 22 às 24 UTC
Vento 11 kt de oes-noroeste com rajadas de 17 kt
Visibilidade: 10 km
Poucas nuvensa uma altura de 7000 ft
A partir de 21 às 2300 UTC
Vento 7 kt de noroeste
Visibilidade: 10 km
Céu limpo
A partir de 22 às 1900 UTC
Vento 8 kt de este
Visibilidade: 10 km
Céu limpo

TAF: KBOS 212005Z 2120/2224 29011G17KT P6SM FEW070 FM212300 32007KT P6SM SKC FM221900 10008KT P6SM SKC

Observações e previsões do tempo de mais de 4000 aeroportos (mensagens METAR e TAF).

As estações disponíveis são os pontos amarelos e vermelhos sobre o mapa.

Mova o rato sobre o mapa para ver o nome da estação.

Depois clique no ponto para visualizar as observações e previsões meteorológicas.

Para alterar o mapa : clique nos botões verdes com uma cruz preta para aumentar o zoom; no botão verde com uma pitada de zoom; ou nas setas verdes para mapas adjacentes.


METAR-TAF: